Flight Track Log - Related Links

Times and Time Zones

All times are in EDT time to prevent confusion due to time zone crossing. See the UAL1401 flight status page for this flight to view local times or setup timezone preferences in your user account.


Time Position Orientation Groundspeed Altitude Reporting Facility
EDT Latitude Longitude Course Direction KTS MPH feet Rate Location/Type
Sat 07:40:00 AM 12.3682 -68.6357 303° West  Level FlightAware Approximate
Sat 07:41:00 AM 12.4274 -68.7305 303° West  Level FlightAware Approximate
Sat 07:42:00 AM 12.4876 -68.8248 304° West  Level FlightAware Approximate
Sat 07:43:00 AM 12.5484 -68.9186 304° West  Level FlightAware Approximate
Sat 07:44:00 AM 12.6093 -69.0129 304° West  Level FlightAware Approximate
Sat 07:45:00 AM 12.6723 -69.1057 306° West  Level FlightAware Approximate
Sat 07:46:00 AM 12.7366 -69.1976 306° West  Level FlightAware Approximate
Sat 07:47:00 AM 12.8010 -69.2895 306° West  Level FlightAware Approximate
Sat 07:48:00 AM 12.8653 -69.3814 306° West  Level FlightAware Approximate
Sat 07:49:00 AM 12.9198 -69.4796 304° West  Level FlightAware Approximate
Sat 07:50:00 AM 12.9791 -69.5749 297° West  Level FlightAware Approximate
Sat 07:51:00 AM 13.0419 -69.6679 305° West  Level FlightAware Approximate
Sat 07:52:00 AM 13.1058 -69.7602 305° West  Level FlightAware Approximate
Sat 07:53:00 AM 13.1682 -69.8536 304° West  Level FlightAware Approximate
Sat 07:54:00 AM 13.2295 -69.9479 304° West  Level FlightAware Approximate
Sat 07:55:00 AM 13.2908 -70.0422 304° West  Level FlightAware Approximate
Sat 07:56:00 AM 13.3520 -70.1365 304° West  Level FlightAware Approximate
Sat 07:57:00 AM 13.4132 -70.2309 304° West  Level FlightAware Approximate
Sat 07:58:00 AM 13.4743 -70.3253 304° West  Level FlightAware Approximate
Sat 07:59:00 AM 13.5354 -70.4198 304° West  Level FlightAware Approximate
Sat 08:00:00 AM 13.5965 -70.5143 304° West  Level FlightAware Approximate
Sat 08:01:00 AM 13.6575 -70.6089 304° West  Level FlightAware Approximate
Sat 08:02:00 AM 13.7185 -70.7035 304° West  Level FlightAware Approximate
Sat 08:03:00 AM 13.7795 -70.7982 304° West  Level FlightAware Approximate
Sat 08:04:00 AM 13.8404 -70.8929 304° West  Level FlightAware Approximate
Sat 08:05:00 AM 13.9013 -70.9877 304° West  Level FlightAware Approximate
Sat 08:06:00 AM 13.9622 -71.0825 303° West  Level FlightAware Approximate
Sat 08:07:00 AM 14.0230 -71.1774 303° West  Level FlightAware Approximate
Sat 08:08:00 AM 14.0838 -71.2723 303° West  Level FlightAware Approximate
Sat 08:09:00 AM 14.1445 -71.3672 303° West  Level FlightAware Approximate
Sat 08:10:00 AM 14.2050 -71.4619 303° West  Level FlightAware Approximate
Sat 08:11:00 AM 14.2655 -71.5567 303° West  Level FlightAware Approximate
Sat 08:12:00 AM 14.3259 -71.6515 303° West  Level FlightAware Approximate
Sat 08:13:00 AM 14.3863 -71.7463 303° West  Level FlightAware Approximate
Sat 08:14:00 AM 14.4466 -71.8412 303° West  Level FlightAware Approximate
Sat 08:15:00 AM 14.5070 -71.9361 303° West  Level FlightAware Approximate
Sat 08:16:00 AM 14.5672 -72.0312 303° West  Level FlightAware Approximate
Sat 08:17:00 AM 14.6275 -72.1262 303° West  Level FlightAware Approximate
Sat 08:18:00 AM 14.6876 -72.2213 303° West  Level FlightAware Approximate
Sat 08:19:00 AM 14.7478 -72.3165 303° West  Level FlightAware Approximate
Sat 08:20:00 AM 14.8079 -72.4117 303° West  Level FlightAware Approximate
Sat 08:21:00 AM 14.8680 -72.5069 303° West  Level FlightAware Approximate
Sat 08:22:00 AM 14.9281 -72.6022 303° West  Level FlightAware Approximate
Sat 08:23:00 AM 14.9881 -72.6976 303° West  Level FlightAware Approximate
Sat 08:24:00 AM 15.0480 -72.7930 303° West  Level FlightAware Approximate
Sat 08:25:00 AM 15.1079 -72.8885 303° West  Level FlightAware Approximate
Sat 08:26:00 AM 15.1678 -72.9840 303° West  Level FlightAware Approximate
Sat 08:27:00 AM 15.2276 -73.0796 303° West  Level FlightAware Approximate
Sat 08:28:00 AM 15.2874 -73.1752 303° West  Level FlightAware Approximate
Sat 08:29:00 AM 15.3472 -73.2709 303° West  Level FlightAware Approximate
Sat 08:30:00 AM 15.4069 -73.3667 303° West  Level FlightAware Approximate
Sat 08:31:00 AM 15.4666 -73.4625 303° West  Level FlightAware Approximate
Sat 08:32:00 AM 15.5262 -73.5583 303° West  Level FlightAware Approximate
Sat 08:33:00 AM 15.5858 -73.6543 303° West  Level FlightAware Approximate
Sat 08:34:00 AM 15.6454 -73.7502 303° West  Level FlightAware Approximate
Sat 08:35:00 AM 15.7049 -73.8463 303° West  Level FlightAware Approximate
Sat 08:36:00 AM 15.7643 -73.9423 303° West  Level FlightAware Approximate
Sat 08:37:00 AM 15.8239 -74.0384 303° West  Level FlightAware Approximate
Sat 08:38:00 AM 15.8835 -74.1345 303° West  Level FlightAware Approximate
Sat 08:39:00 AM 15.9431 -74.2305 303° West  Level FlightAware Approximate
Sat 08:40:00 AM 16.0026 -74.3267 303° West  Level FlightAware Approximate
Sat 08:41:00 AM 16.0621 -74.4229 303° West  Level FlightAware Approximate
Sat 08:42:00 AM 16.1216 -74.5191 303° West  Level FlightAware Approximate
Sat 08:43:00 AM 16.1810 -74.6155 303° West  Level FlightAware Approximate
Sat 08:44:00 AM 16.2404 -74.7118 303° West  Level FlightAware Approximate
Sat 08:45:00 AM 16.2997 -74.8083 303° West  Level FlightAware Approximate
Sat 08:46:00 AM 16.3589 -74.9048 303° West  Level FlightAware Approximate
Sat 08:47:00 AM 16.4182 -75.0013 303° West  Level FlightAware Approximate
Sat 08:48:00 AM 16.4774 -75.0979 303° West  Level FlightAware Approximate
Sat 08:49:00 AM 16.5365 -75.1946 303° West  Level FlightAware Approximate
Sat 08:50:00 AM 16.5956 -75.2913 303° West  Level FlightAware Approximate
Sat 08:51:00 AM 16.6547 -75.3881 303° West  Level FlightAware Approximate
Sat 08:52:00 AM 16.7137 -75.4850 302° West  Level FlightAware Approximate
Sat 08:53:00 AM 16.7727 -75.5819 302° West  Level FlightAware Approximate
Sat 08:54:00 AM 16.8316 -75.6788 302° West  Level FlightAware Approximate
Sat 08:55:00 AM 16.8905 -75.7759 302° West  Level FlightAware Approximate
Sat 08:56:00 AM 16.9493 -75.8730 302° West  Level FlightAware Approximate
Sat 08:57:00 AM 17.0081 -75.9701 302° West  Level FlightAware Approximate
Sat 08:58:00 AM 17.0668 -76.0673 302° West  Level FlightAware Approximate
Sat 08:59:00 AM 17.1255 -76.1646 302° West  Level FlightAware Approximate
Sat 09:00:00 AM 17.1842 -76.2619 302° West  Level FlightAware Approximate
Sat 09:01:00 AM 17.2428 -76.3593 302° West  Level FlightAware Approximate
Sat 09:02:00 AM 17.3013 -76.4568 302° West  Level FlightAware Approximate
Sat 09:03:00 AM 17.3598 -76.5543 302° West  Level FlightAware Approximate
Sat 09:04:00 AM 17.4183 -76.6519 302° West  Level FlightAware Approximate
Sat 09:05:00 AM 17.4767 -76.7495 302° West  Level FlightAware Approximate
Sat 09:06:00 AM 17.5351 -76.8472 302° West  Level FlightAware Approximate
Sat 09:07:00 AM 17.5934 -76.9450 302° West  Level FlightAware Approximate
Sat 09:08:00 AM 17.6516 -77.0428 302° West  Level FlightAware Approximate
Sat 09:09:00 AM 17.7099 -77.1407 302° West  Level FlightAware Approximate
Sat 09:10:00 AM 17.7680 -77.2387 302° West  Level FlightAware Approximate
Sat 09:11:00 AM 17.8262 -77.3367 302° West  Level FlightAware Approximate
Sat 09:12:00 AM 17.8842 -77.4348 302° West  Level FlightAware Approximate
Sat 09:13:00 AM 17.9422 -77.5329 302° West  Level FlightAware Approximate
Sat 09:14:00 AM 18.0002 -77.6311 302° West  Level FlightAware Approximate
Sat 09:15:00 AM 18.0582 -77.7294 302° West  Level FlightAware Approximate
Sat 09:16:00 AM 18.1160 -77.8278 302° West  Level FlightAware Approximate
Sat 09:17:00 AM 18.1739 -77.9262 302° West  Level FlightAware Approximate
Sat 09:18:00 AM 18.2316 -78.0246 302° West  Level FlightAware Approximate
Sat 09:19:00 AM 18.2894 -78.1232 302° West  Level FlightAware Approximate
Sat 09:20:00 AM 18.3470 -78.2218 302° West  Level FlightAware Approximate
Sat 09:21:00 AM 18.4047 -78.3204 302° West  Level FlightAware Approximate
Sat 09:22:00 AM 18.4622 -78.4192 302° West  Level FlightAware Approximate
Sat 09:23:00 AM 18.5198 -78.5180 302° West  Level FlightAware Approximate
Sat 09:24:00 AM 18.5772 -78.6169 302° West  Level FlightAware Approximate
Sat 09:25:00 AM 18.6346 -78.7158 301° West  Level FlightAware Approximate
Sat 09:26:00 AM 18.6920 -78.8148 301° West  Level FlightAware Approximate
Sat 09:27:00 AM 18.7493 -78.9139 301° West  Level FlightAware Approximate
Sat 09:28:00 AM 18.8066 -79.0130 301° West  Level FlightAware Approximate
Sat 09:29:00 AM 18.8638 -79.1122 301° West  Level FlightAware Approximate
Sat 09:30:00 AM 18.9210 -79.2115 301° West  Level FlightAware Approximate
Sat 09:31:00 AM 18.9781 -79.3108 301° West  Level FlightAware Approximate
Sat 09:32:00 AM 19.0351 -79.4102 301° West  Level FlightAware Approximate
Sat 09:33:00 AM 19.0921 -79.5097 301° West  Level FlightAware Approximate
Sat 09:34:00 AM 19.1491 -79.6092 301° West  Level FlightAware Approximate
Sat 09:35:00 AM 19.2060 -79.7088 301° West  Level FlightAware Approximate
Sat 09:36:00 AM 19.2628 -79.8085 301° West  Level FlightAware Approximate
Sat 09:37:00 AM 19.3196 -79.9083 301° West  Level FlightAware Approximate
Sat 09:38:00 AM 19.3759 -80.0074 301° West  Level FlightAware Approximate
Sat 09:39:00 AM 19.4322 -80.1066 301° West  Level FlightAware Approximate
Sat 09:40:00 AM 19.4884 -80.2059 301° West  Level FlightAware Approximate
Sat 09:41:00 AM 19.5446 -80.3052 301° West  Level FlightAware Approximate
Sat 09:42:00 AM 19.6007 -80.4046 301° West  Level FlightAware Approximate
Sat 09:43:00 AM 19.6568 -80.5041 301° West  Level FlightAware Approximate
Sat 09:44:00 AM 19.7128 -80.6036 301° West  Level FlightAware Approximate
Sat 09:45:00 AM 19.7688 -80.7032 301° West  Level FlightAware Approximate
Sat 09:46:00 AM 19.8247 -80.8029 301° West  Level FlightAware Approximate
Sat 09:47:00 AM 19.8805 -80.9026 301° West  Level FlightAware Approximate
Sat 09:48:00 AM 19.9363 -81.0025 301° West  Level FlightAware Approximate
Sat 09:49:00 AM 19.9920 -81.1024 301° West  Level FlightAware Approximate
Sat 09:50:00 AM 20.0476 -81.2024 301° West  Level FlightAware Approximate
Sat 09:51:00 AM 20.1032 -81.3025 301° West  Level FlightAware Approximate
Sat 09:52:00 AM 20.1586 -81.4026 301° West  Level FlightAware Approximate
Sat 09:53:00 AM 20.2141 -81.5029 301° West  Level FlightAware Approximate
Sat 09:54:00 AM 20.2694 -81.6032 300° West  Level FlightAware Approximate
Sat 09:55:00 AM 20.3247 -81.7035 300° West  Level FlightAware Approximate
Sat 09:56:00 AM 20.3800 -81.8040 300° West  Level FlightAware Approximate
Sat 09:57:00 AM 20.4352 -81.9045 300° West  Level FlightAware Approximate
Sat 09:58:00 AM 20.4903 -82.0051 300° West  Level FlightAware Approximate
Sat 09:59:00 AM 20.5453 -82.1058 300° West  Level FlightAware Approximate
Sat 10:00:00 AM 20.6004 -82.2065 300° West  Level FlightAware Approximate
Sat 10:01:00 AM 20.6553 -82.3073 300° West  Level FlightAware Approximate
Sat 10:02:00 AM 20.7102 -82.4082 300° West  Level FlightAware Approximate
Sat 10:03:00 AM 20.7651 -82.5091 300° West  Level FlightAware Approximate
Sat 10:04:00 AM 20.8199 -82.6102 300° West  Level FlightAware Approximate
Sat 10:05:00 AM 20.8746 -82.7113 300° West  Level FlightAware Approximate
Sat 10:06:00 AM 20.9292 -82.8125 300° West  Level FlightAware Approximate
Sat 10:07:00 AM 20.9838 -82.9137 300° West  Level FlightAware Approximate
Sat 10:08:00 AM 21.0384 -83.0150 300° West  Level FlightAware Approximate
Sat 10:09:00 AM 21.0928 -83.1164 300° West  Level FlightAware Approximate
Sat 10:10:00 AM 21.1473 -83.2179 300° West  Level FlightAware Approximate
Sat 10:11:00 AM 21.2016 -83.3195 300° West  Level FlightAware Approximate
Sat 10:12:00 AM 21.2559 -83.4211 300° West  Level FlightAware Approximate
Sat 10:13:00 AM 21.3102 -83.5228 300° West  Level FlightAware Approximate
Sat 10:14:00 AM 21.3643 -83.6245 300° West  Level FlightAware Approximate
Sat 10:15:00 AM 21.4185 -83.7264 300° West  Level FlightAware Approximate
Sat 10:16:00 AM 21.4725 -83.8283 300° West  Level FlightAware Approximate
Sat 10:17:00 AM 21.5265 -83.9303 300° West  Level FlightAware Approximate
Sat 10:18:00 AM 21.5805 -84.0324 300° West  Level FlightAware Approximate
Sat 10:19:00 AM 21.6343 -84.1345 300° West  Level FlightAware Approximate
Sat 10:20:00 AM 21.6881 -84.2368 300° West  Level FlightAware Approximate
Sat 10:21:00 AM 21.7419 -84.3391 300° West  Level FlightAware Approximate
Sat 10:22:00 AM 21.7955 -84.4414 299° West  Level FlightAware Approximate
Sat 10:23:00 AM 21.8492 -84.5439 299° West  Level FlightAware Approximate
Sat 10:24:00 AM 21.9027 -84.6464 299° West  Level FlightAware Approximate
Sat 10:25:00 AM 21.9562 -84.7490 299° West  Level FlightAware Approximate
Sat 10:26:00 AM 22.0096 -84.8517 299° West  Level FlightAware Approximate
Sat 10:27:00 AM 22.0630 -84.9545 299° West  Level FlightAware Approximate
Sat 10:28:00 AM 22.1163 -85.0573 299° West  Level FlightAware Approximate
Sat 10:29:00 AM 22.1695 -85.1602 299° West  Level FlightAware Approximate
Sat 10:30:00 AM 22.2227 -85.2632 299° West  Level FlightAware Approximate
Sat 10:31:00 AM 22.2758 -85.3663 299° West  Level FlightAware Approximate
Sat 10:32:00 AM 22.3289 -85.4695 299° West  Level FlightAware Approximate
Sat 10:33:00 AM 22.3818 -85.5727 299° West  Level FlightAware Approximate
Sat 10:34:00 AM 22.4348 -85.6760 299° West  Level FlightAware Approximate
Sat 10:35:00 AM 22.4876 -85.7794 299° West  Level FlightAware Approximate
Sat 10:36:00 AM 22.5404 -85.8829 299° West  Level FlightAware Approximate
Sat 10:37:00 AM 22.5931 -85.9864 299° West  Level FlightAware Approximate
Sat 10:38:00 AM 22.6458 -86.0900 299° West  Level FlightAware Approximate
Sat 10:39:00 AM 22.6985 -86.1937 299° West  Level FlightAware Approximate
Sat 10:40:00 AM 22.7511 -86.2974 299° West  Level FlightAware Approximate
Sat 10:41:00 AM 22.8036 -86.4012 299° West  Level FlightAware Approximate
Sat 10:42:00 AM 22.8561 -86.5051 299° West  Level FlightAware Approximate
Sat 10:43:00 AM 22.9084 -86.6091 299° West  Level FlightAware Approximate
Sat 10:44:00 AM 22.9608 -86.7132 299° West  Level FlightAware Approximate
Sat 10:45:00 AM 23.0130 -86.8173 299° West  Level FlightAware Approximate
Sat 10:46:00 AM 23.0652 -86.9215 299° West  Level FlightAware Approximate
Sat 10:47:00 AM 23.1173 -87.0258 299° West  Level FlightAware Approximate
Sat 10:48:00 AM 23.1694 -87.1302 298° West  Level FlightAware Approximate
Sat 10:49:00 AM 23.2214 -87.2347 298° West  Level FlightAware Approximate
Sat 10:50:00 AM 23.2733 -87.3392 298° West  Level FlightAware Approximate
Sat 10:51:00 AM 23.3251 -87.4438 298° West  Level FlightAware Approximate
Sat 10:52:00 AM 23.3769 -87.5485 298° West  Level FlightAware Approximate
Sat 10:53:00 AM 23.4286 -87.6533 298° West  Level FlightAware Approximate
Sat 10:54:00 AM 23.4803 -87.7582 298° West  Level FlightAware Approximate
Sat 10:55:00 AM 23.5319 -87.8631 298° West  Level FlightAware Approximate
Sat 10:56:00 AM 23.5833 -87.9682 298° West  Level FlightAware Approximate
Sat 10:57:00 AM 23.6348 -88.0733 298° West  Level FlightAware Approximate
Sat 10:58:00 AM 23.6861 -88.1785 298° West  Level FlightAware Approximate
Sat 10:59:00 AM 23.7374 -88.2838 298° West  Level FlightAware Approximate
Sat 11:00:00 AM 23.7886 -88.3891 298° West  Level FlightAware Approximate
Sat 11:01:00 AM 23.8398 -88.4946 298° West  Level FlightAware Approximate
Sat 11:02:00 AM 23.8908 -88.6001 298° West  Level FlightAware Approximate
Sat 11:03:00 AM 23.9418 -88.7057 298° West  Level FlightAware Approximate
Sat 11:04:00 AM 23.9928 -88.8114 298° West  Level FlightAware Approximate
Sat 11:05:00 AM 24.0436 -88.9172 298° West  Level FlightAware Approximate
Sat 11:06:00 AM 24.0944 -89.0230 298° West  Level FlightAware Approximate
Sat 11:07:00 AM 24.1456 -89.1287 298° West  Level FlightAware Approximate
Sat 11:08:00 AM 24.1946 -89.2302 298° West  Level FlightAware Approximate
Sat 11:09:00 AM 24.2435 -89.3319 298° West  Level FlightAware Approximate
Sat 11:10:00 AM 24.2924 -89.4336 298° West  Level FlightAware Approximate
Sat 11:11:00 AM 24.3411 -89.5354 298° West  Level FlightAware Approximate
Sat 11:12:00 AM 24.3899 -89.6373 298° West  Level FlightAware Approximate
Sat 11:13:00 AM 24.4385 -89.7392 298° West  Level FlightAware Approximate
Sat 11:14:00 AM 24.4894 -89.8394 318° Northwest  Level FlightAware Approximate
Sat 11:15:00 AM 24.5743 -89.9067 325° Northwest  Level FlightAware Approximate
Sat 11:16:00 AM 24.6604 -89.9725 325° Northwest  Level FlightAware Approximate
Sat 11:17:00 AM 24.7464 -90.0384 325° Northwest  Level FlightAware Approximate
Sat 11:18:00 AM 24.8324 -90.1044 325° Northwest  Level FlightAware Approximate
Sat 11:19:00 AM 24.9184 -90.1705 325° Northwest  Level FlightAware Approximate
Sat 11:20:00 AM 25.0043 -90.2367 325° Northwest  Level FlightAware Approximate
Sat 11:21:00 AM 25.0904 -90.3027 325° Northwest  Level FlightAware Approximate
Sat 11:22:00 AM 25.1764 -90.3689 325° Northwest  Level FlightAware Approximate
Sat 11:23:00 AM 25.2624 -90.4351 325° Northwest  Level FlightAware Approximate
Sat 11:24:00 AM 25.3484 -90.5015 325° Northwest  Level FlightAware Approximate
Sat 11:25:00 AM 25.4343 -90.5679 325° Northwest  Level FlightAware Approximate
Sat 11:26:00 AM 25.5202 -90.6344 325° Northwest  Level FlightAware Approximate
Sat 11:27:00 AM 25.6061 -90.7011 325° Northwest  Level FlightAware Approximate
Sat 11:28:00 AM 25.6919 -90.7678 325° Northwest  Level FlightAware Approximate
Sat 11:29:00 AM 25.7777 -90.8346 325° Northwest  Level FlightAware Approximate
Sat 11:30:00 AM 25.8635 -90.9015 325° Northwest  Level FlightAware Approximate
Sat 11:31:00 AM 25.9492 -90.9685 325° Northwest  Level FlightAware Approximate
Sat 11:32:00 AM 26.0350 -91.0356 325° Northwest  Level FlightAware Approximate
Sat 11:33:00 AM 26.1206 -91.1029 325° Northwest  Level FlightAware Approximate
Sat 11:34:00 AM 26.2063 -91.1702 325° Northwest  Level FlightAware Approximate
Sat 11:35:00 AM 26.2919 -91.2376 325° Northwest  Level FlightAware Approximate
Sat 11:36:00 AM 26.3776 -91.3051 325° Northwest  Level FlightAware Approximate
Sat 11:37:00 AM 26.4631 -91.3727 325° Northwest  Level FlightAware Approximate
Sat 11:38:00 AM 26.5524 -91.4434 325° Northwest  Level FlightAware Approximate
Sat 11:38:44 AM 26.8025 -91.6486 325° Northwest 398 458 36,000  Level Houston Center
Sat 11:39:00 AM 26.6417 -91.5142 325° Northwest  Level FlightAware Approximate
Sat 11:39:46 AM 26.8892 -91.7211 323° Northwest 410 472 38,000  Level Houston Center
Sat 11:40:00 AM 26.7310 -91.5851 325° Northwest  Level FlightAware Approximate
Sat 11:40:48 AM 26.9428 -91.8269 300° West 395 455 38,000  Level Houston Center
Sat 11:41:00 AM 26.8202 -91.6561 325° Northwest  Level FlightAware Approximate
Sat 11:41:50 AM 27.0006 -91.9633 295° West 401 461 38,000  Level Houston Center
Sat 11:42:00 AM 26.9093 -91.7272 325° Northwest  Level FlightAware Approximate
Sat 11:42:51 AM 27.0483 -92.0778 295° West 404 465 38,000  Level Houston Center
Sat 11:43:00 AM 26.9985 -91.7985 325° Northwest  Level FlightAware Approximate
Sat 11:43:53 AM 27.0969 -92.1900 296° West 404 465 37,900  Level Houston Center
Sat 11:44:00 AM 27.0876 -91.8699 325° Northwest  Level FlightAware Approximate
Sat 11:44:55 AM 27.1456 -92.3033 296° West 402 463 38,000  Level Houston Center
Sat 11:45:56 AM 27.1922 -92.4219 294° West 405 466 38,000 -49 Level Houston Center
Sat 11:46:58 AM 27.2408 -92.5339 296° West 405 466 37,900  Descending Houston Center
Sat 11:48:00 AM 27.2881 -92.6400 297° West 395 455 38,000  Climbing Houston Center
Sat 11:49:02 AM 27.3350 -92.7486 296° West 389 448 37,900 -49 Descending Houston Center
Sat 11:50:03 AM 27.3914 -92.8811 296° West 390 449 37,900 49 Level Houston Center
Sat 11:51:05 AM 27.4364 -92.9922 295° West 390 449 38,000 48 Climbing Houston Center
Sat 11:52:07 AM 27.4836 -93.1014 296° West 390 449 38,000 -48 Level Houston Center
Sat 11:53:09 AM 27.5278 -93.2106 295° West 386 444 37,900  Descending Houston Center
Sat 11:54:10 AM 27.5756 -93.3283 295° West 377 434 38,000 49 Climbing Houston Center
Sat 11:55:12 AM 27.6206 -93.4331 296° West 372 428 38,000  Level Houston Center
Sat 11:56:14 AM 27.6647 -93.5411 295° West 377 434 38,000  Level Houston Center
Sat 11:57:15 AM 27.7069 -93.6472 294° West 374 430 38,000  Level Houston Center
Sat 11:58:17 AM 27.7519 -93.7525 296° West 372 428 38,000  Level Houston Center
Sat 11:59:19 AM 27.7947 -93.8597 294° West 374 430 38,000  Level Houston Center
Sat 12:00:20 PM 27.8383 -93.9669 295° West 377 434 38,000  Level Houston Center
Sat 12:01:22 PM 27.8906 -94.0961 295° West 377 434 38,000  Level Houston Center
Sat 12:02:24 PM 27.9353 -94.2011 296° West 372 428 38,000  Level Houston Center
Sat 12:03:25 PM 27.9778 -94.3097 294° West 376 433 38,000  Level Houston Center
Sat 12:04:27 PM 28.0200 -94.4186 294° West 378 435 38,000  Level Houston Center
Sat 12:05:29 PM 28.0642 -94.5239 295° West 373 429 38,000  Level Houston Center
Sat 12:06:30 PM 28.1069 -94.6300 295° West 370 426 38,000  Level Houston Center
Sat 12:07:32 PM 28.1497 -94.7397 294° West 377 434 38,000  Level Houston Center
Sat 12:08:34 PM 28.1939 -94.8481 295° West 378 435 38,000 -195 Level Houston Center
Sat 12:09:35 PM 28.2456 -94.9786 294° West 379 436 37,600 -634 Descending Houston Center
Sat 12:10:37 PM 28.2883 -95.0869 294° West 376 433 36,700 -919 Descending Houston Center
Sat 12:11:39 PM 28.3319 -95.1964 294° West 377 434 35,700 -976 Descending Houston Center
Sat 12:12:40 PM 28.3603 -95.3083 286° West 374 430 34,700 -927 Descending Houston Center
Sat 12:13:42 PM 28.3694 -95.4261 275° West 375 432 33,800 -927 Descending Houston Center
Sat 12:14:43 PM 28.4139 -95.5408 294° West 397 457 32,800 -927 Descending Houston Center
Sat 12:15:45 PM 28.4672 -95.6553 298° West 407 468 31,900 -919 Descending Houston Center
Sat 12:16:47 PM 28.5206 -95.7731 297° West 415 478 30,900 -1,854 Descending Houston Center
Sat 12:17:48 PM 28.5850 -95.9131 298° West 415 478 28,100 -1,951 Descending Houston Center
Sat 12:18:50 PM 28.6378 -96.0292 297° West 407 468 26,900 -1,065 Descending Houston Center
Sat 12:19:52 PM 28.7328 -96.1056 325° Northwest 429 494 25,900 -976 Descending Houston Center
Sat 12:20:53 PM 28.8408 -96.1669 334° Northwest 433 498 24,900 -1,756 Descending Houston Center
Sat 12:21:55 PM 28.9475 -96.2297 333° Northwest 432 497 22,300 -2,613 Descending Houston Center
Sat 12:22:57 PM 29.0739 -96.2300 360° North 459 528 19,500 -2,933 Descending Houston Center
Sat 12:23:25 PM 29.1431 -96.2211 North 465 535 17,900 -2,459 Descending Houston Center
Sat 12:23:58 PM 29.1953 -96.2147 North 448 516 17,000 -2,388 Descending Houston Center
Sat 12:25:08 PM 29.3364 -96.1972 North 366 421 13,800 -2,613 Descending Houston Center
Sat 12:26:02 PM 29.4208 -96.1850 North 365 420 11,600 -2,035 Descending Houston Center
Sat 12:27:03 PM 29.5206 -96.1708 North 363 418 9,900 -780 Descending Houston Center
Sat 12:28:05 PM 29.5808 -96.0942 48° Northeast 339 390 10,000 48 Climbing Houston Center
Sat 12:29:07 PM 29.6303 -95.9986 59° Northeast 337 388 10,000 -683 Level Houston Center
Sat 12:30:08 PM 29.6861 -95.9283 48° Northeast 309 356 8,600 -1,268 Descending Houston Center
Sat 12:31:10 PM 29.7528 -95.8722 36° Northeast 297 342 7,400 -774 Descending Houston Center
Sat 12:32:12 PM 29.8164 -95.8169 37° Northeast 288 331 7,000 -677 Descending Houston Center
Sat 12:33:14 PM 29.8775 -95.7636 37° Northeast 279 321 6,000 -976 Descending Houston Center
Sat 12:34:15 PM 29.9489 -95.7031 36° Northeast 266 306 5,000 -714 Descending Houston Center
Sat 12:35:20 PM 29.9744 -95.6242 69° East 245 282 4,500 -462 Descending Houston Center

Login

Don't have an account? Register now (free) for customized features, flight alerts, and more!